首页
METAR-TAF:

METAR-TAF

机场 :

Indiana County Airport (Jimmy Stewart Field)

印第安纳, 宾夕法尼亚州, 美国

纬度: 40-38N, 经度: 079-06W, 海拔: 429米

当前天气观测

该预报发布于30分钟前的21:15 UTC
风速8节,风向西转西南,有时为15节阵风
温度 23°C
湿度 83%
气压 1003 hPa
能見度: 16.1公里
散云层高于2100英尺
散云层高于2800英尺
多云层高于3400英尺

METAR: KIDI 202115Z AUTO 24008G15KT 10SM SCT021 SCT028 BKN034 23/20 A2961 RMK A01

时间: 17:45 (21:45 UTC)


TAF: 丢失

超过4000个机场的气象观测和天气预报(METAR&TAF报告)。

可查询的气象台以黄色和红色小点在地图上表示。

将鼠标移到小点上方,可查看气象台名称。

然后点击查看天气观测和预报。

如需切换地图:点击带黑十字的绿色按钮放大地图;点击带横线的绿色按钮缩小地图;或者点击绿色箭头查看邻近地区的地图。


METAR-TAF: